createdAt,value
2022-11-19T00:01:33.498Z,100688.47
2022-11-19T00:04:01.005Z,100696.47
2022-11-19T00:06:28.737Z,100702.38
2022-11-19T00:08:56.275Z,100713.75
2022-11-19T00:11:45.374Z,100709.00
2022-11-19T00:14:15.117Z,100710.59
2022-11-19T00:16:44.164Z,100719.56
2022-11-19T00:19:11.909Z,100722.34
2022-11-19T00:21:39.466Z,100732.28
2022-11-19T00:24:07.557Z,100735.91
2022-11-19T00:26:35.092Z,100732.53
2022-11-19T00:29:02.781Z,100733.63
2022-11-19T00:31:30.302Z,100741.63
2022-11-19T00:33:57.800Z,100740.78
2022-11-19T00:36:25.336Z,100738.09
2022-11-19T00:38:52.916Z,100742.47
2022-11-19T00:41:20.576Z,100745.97
2022-11-19T00:43:48.490Z,100743.31
2022-11-19T00:46:17.507Z,100751.28
2022-11-19T00:48:45.962Z,100754.84
2022-11-19T00:51:14.420Z,100751.44
2022-11-19T00:53:41.929Z,100750.69
2022-11-19T00:56:12.775Z,100754.44
2022-11-19T00:58:41.626Z,100758.09
2022-11-19T01:01:10.469Z,100762.72
2022-11-19T01:03:39.157Z,100763.66
2022-11-19T01:06:07.649Z,100770.94
2022-11-19T01:08:36.054Z,100774.44
2022-11-19T01:11:08.245Z,100777.97
2022-11-19T01:13:36.367Z,100779.78
2022-11-19T01:16:08.430Z,100782.56
2022-11-19T01:18:37.860Z,100771.91
2022-11-19T01:21:07.039Z,100782.69
2022-11-19T01:23:35.207Z,100782.78
2022-11-19T01:26:02.810Z,100786.44
2022-11-19T01:28:31.016Z,100792.59
2022-11-19T01:30:58.576Z,100798.53
2022-11-19T01:33:26.188Z,100803.75
2022-11-19T01:36:01.754Z,100796.63
2022-11-19T01:38:30.363Z,100806.28
2022-11-19T01:40:58.457Z,100802.78
2022-11-19T01:43:51.473Z,100813.34
2022-11-19T01:46:22.095Z,100815.13
2022-11-19T01:48:57.324Z,100816.00
2022-11-19T01:51:55.880Z,100820.44
2022-11-19T01:54:36.045Z,100820.59
2022-11-19T01:57:09.486Z,100826.03
2022-11-19T01:59:38.669Z,100830.41
2022-11-19T02:02:06.470Z,100833.91
2022-11-19T02:04:35.321Z,100840.09
2022-11-19T02:07:03.496Z,100845.41
2022-11-19T02:09:33.056Z,100844.56
2022-11-19T02:12:22.183Z,100848.22
2022-11-19T02:15:15.635Z,100850.00
2022-11-19T02:17:58.370Z,100850.97
2022-11-19T02:20:40.852Z,100854.63
2022-11-19T02:23:14.405Z,100844.91
2022-11-19T02:26:09.250Z,100846.03
2022-11-19T02:29:04.935Z,100857.84
2022-11-19T02:31:51.352Z,100859.81
2022-11-19T02:34:21.983Z,100871.31
2022-11-19T02:37:00.065Z,100860.75
2022-11-19T02:39:40.072Z,100873.97
2022-11-19T02:42:13.454Z,100875.78
2022-11-19T02:45:02.210Z,100874.94
2022-11-19T02:47:40.879Z,100887.28
2022-11-19T02:50:16.257Z,100888.38
2022-11-19T02:52:45.328Z,100896.34
2022-11-19T02:55:18.201Z,100899.75
2022-11-19T02:57:55.384Z,100904.97
2022-11-19T03:00:41.742Z,100904.84
2022-11-19T03:03:35.327Z,100903.78
2022-11-19T03:06:10.003Z,100897.47
2022-11-19T03:08:38.160Z,100903.50
2022-11-19T03:11:27.013Z,100899.06
2022-11-19T03:14:13.181Z,100911.63
2022-11-19T03:16:47.652Z,100917.09
2022-11-19T03:22:58.422Z,100924.59
2022-11-19T03:28:38.144Z,100930.75
2022-11-19T03:31:06.905Z,100939.72
2022-11-19T03:33:40.739Z,100932.66
2022-11-19T03:36:14.526Z,100944.19
2022-11-19T03:38:47.136Z,100949.53
2022-11-19T03:41:17.400Z,100942.38
2022-11-19T03:43:51.445Z,100949.41
2022-11-19T03:46:22.337Z,100948.41
2022-11-19T03:48:53.750Z,100958.22
2022-11-19T03:55:10.400Z,100970.63
2022-11-19T03:57:38.146Z,100971.56
2022-11-19T04:00:06.408Z,100982.97
2022-11-19T04:02:40.977Z,100982.81
2022-11-19T04:05:09.449Z,100979.09
2022-11-19T04:07:36.953Z,100986.97
2022-11-19T04:10:05.061Z,100992.19
2022-11-19T04:12:32.511Z,100999.09
2022-11-19T04:15:00.090Z,101004.44
2022-11-19T04:17:27.742Z,101008.06
2022-11-19T04:19:55.223Z,101001.84
2022-11-19T04:22:22.677Z,101004.44
2022-11-19T04:24:50.331Z,101003.59
2022-11-19T04:27:17.839Z,101006.25
2022-11-19T04:29:45.345Z,101013.50
2022-11-19T04:32:12.822Z,101026.06
2022-11-19T04:34:40.368Z,101019.28
2022-11-19T04:37:07.862Z,101023.00
2022-11-19T04:39:35.431Z,101026.88
2022-11-19T04:42:03.183Z,101025.41
2022-11-19T04:44:30.817Z,101025.75
2022-11-19T04:46:58.387Z,101033.97
2022-11-19T04:49:26.753Z,101027.38
2022-11-19T04:51:54.222Z,101037.13
2022-11-19T04:54:21.734Z,101030.88
2022-11-19T04:56:49.208Z,101035.03
2022-11-19T04:59:16.979Z,101040.94
2022-11-19T05:01:45.241Z,101037.84
2022-11-19T05:04:12.872Z,101039.88
2022-11-19T05:06:40.433Z,101039.47
2022-11-19T05:09:08.104Z,101038.31
2022-11-19T05:11:35.665Z,101041.38
2022-11-19T05:14:03.873Z,101032.88
2022-11-19T05:16:31.436Z,101034.25
2022-11-19T05:18:58.982Z,101037.56
2022-11-19T05:21:26.491Z,101025.09
2022-11-19T05:23:54.304Z,101028.38
2022-11-19T05:26:21.841Z,101026.34
2022-11-19T05:28:49.333Z,101025.09
2022-11-19T05:31:16.807Z,101022.97
2022-11-19T05:33:44.309Z,101019.94
2022-11-19T05:36:11.928Z,101019.50
2022-11-19T05:38:41.184Z,101024.31
2022-11-19T05:41:08.768Z,101023.66
2022-11-19T05:43:36.387Z,101024.91
2022-11-19T05:46:03.919Z,101021.69
2022-11-19T05:48:31.523Z,101028.25
2022-11-19T05:50:59.058Z,101027.81
2022-11-19T05:53:27.395Z,101024.63
2022-11-19T05:55:54.915Z,101021.41
2022-11-19T05:58:22.495Z,101023.53
2022-11-19T06:04:06.700Z,101046.19
2022-11-19T06:06:34.395Z,101052.53
2022-11-19T06:09:01.906Z,101049.03
2022-11-19T06:11:48.057Z,101055.31
2022-11-19T06:14:22.061Z,101061.47
2022-11-19T06:16:51.524Z,101064.00
2022-11-19T06:19:20.220Z,101060.22
2022-11-19T06:21:48.323Z,101060.22
2022-11-19T06:24:16.468Z,101055.66
2022-11-19T06:26:44.241Z,101047.88
2022-11-19T06:29:14.222Z,101057.84
2022-11-19T06:31:41.958Z,101065.28
2022-11-19T06:34:10.045Z,101075.25
2022-11-19T06:36:42.002Z,101073.31
2022-11-19T06:39:11.413Z,101079.09
2022-11-19T06:41:38.895Z,101082.00
2022-11-19T06:44:06.370Z,101083.22
2022-11-19T06:46:33.867Z,101082.72
2022-11-19T06:49:01.364Z,101082.25
2022-11-19T06:51:28.823Z,101089.03
2022-11-19T06:53:56.350Z,101089.81
2022-11-19T06:56:23.829Z,101083.34
2022-11-19T06:58:51.388Z,101085.59
2022-11-19T07:01:28.840Z,101074.78
2022-11-19T07:03:56.408Z,101078.81
2022-11-19T07:06:23.886Z,101084.56
2022-11-19T07:08:51.450Z,101092.31
2022-11-19T07:11:27.955Z,101093.19
2022-11-19T07:13:57.384Z,101085.97
2022-11-19T07:16:27.346Z,101086.94
2022-11-19T07:18:57.644Z,101083.44
2022-11-19T07:21:25.311Z,101090.44
2022-11-19T07:23:52.982Z,101081.69
2022-11-19T07:26:20.548Z,101080.97
2022-11-19T07:28:48.088Z,101084.69
2022-11-19T07:31:16.095Z,101086.47
2022-11-19T07:33:43.827Z,101082.22
2022-11-19T07:36:17.927Z,101090.19
2022-11-19T07:38:47.211Z,101090.38
2022-11-19T07:41:33.240Z,101091.44
2022-11-19T07:44:00.946Z,101096.75
2022-11-19T07:46:28.527Z,101099.41
2022-11-19T07:48:57.590Z,101098.47
2022-11-19T07:51:25.824Z,101106.31
2022-11-19T07:53:55.655Z,101103.59
2022-11-19T07:56:24.059Z,101107.94
2022-11-19T07:58:52.010Z,101111.31
2022-11-19T08:01:21.976Z,101112.09
2022-11-19T08:03:56.092Z,101112.09
2022-11-19T08:06:26.658Z,101122.50
2022-11-19T08:08:55.873Z,101125.81
2022-11-19T08:11:24.330Z,101133.72
2022-11-19T08:13:53.026Z,101139.75
2022-11-19T08:16:39.580Z,101132.53
2022-11-19T08:19:10.275Z,101131.28
2022-11-19T08:21:41.384Z,101139.78
2022-11-19T08:27:13.205Z,101139.19
2022-11-19T08:29:40.796Z,101131.84
2022-11-19T08:32:08.334Z,101136.00
2022-11-19T08:34:35.962Z,101140.25
2022-11-19T08:37:05.433Z,101135.59
2022-11-19T08:39:33.047Z,101139.75
2022-11-19T08:42:19.227Z,101144.66
2022-11-19T08:44:46.801Z,101134.56
2022-11-19T08:47:14.465Z,101146.69
2022-11-19T08:49:42.052Z,101137.66
2022-11-19T08:52:09.520Z,101136.38
2022-11-19T08:54:37.085Z,101137.91
2022-11-19T08:57:04.824Z,101140.16
2022-11-19T08:59:32.307Z,101142.59
2022-11-19T09:01:59.778Z,101143.03
2022-11-19T09:04:27.446Z,101137.28
2022-11-19T09:06:55.019Z,101133.31
2022-11-19T09:09:22.881Z,101136.53
2022-11-19T09:11:50.429Z,101134.41
2022-11-19T09:14:18.368Z,101128.53
2022-11-19T09:16:46.095Z,101124.47
2022-11-19T09:19:13.648Z,101117.94
2022-11-19T09:21:41.078Z,101119.75
2022-11-19T09:24:08.658Z,101125.94
2022-11-19T09:26:38.573Z,101119.88
2022-11-19T09:29:06.167Z,101114.44
2022-11-19T09:31:33.826Z,101105.28
2022-11-19T09:34:01.566Z,101109.66
2022-11-19T09:36:29.060Z,101098.56
2022-11-19T09:38:58.116Z,101101.31
2022-11-19T09:41:37.837Z,101095.06
2022-11-19T09:44:33.015Z,101097.38
2022-11-19T09:47:36.103Z,101099.38
2022-11-19T09:50:18.384Z,101100.16
2022-11-19T09:52:52.332Z,101109.31
2022-11-19T09:55:31.847Z,101109.47
2022-11-19T09:58:00.924Z,101099.09
2022-11-19T10:00:31.845Z,101102.06
2022-11-19T10:03:02.744Z,101093.97
2022-11-19T10:05:54.357Z,101094.00
2022-11-19T10:08:37.103Z,101089.94
2022-11-19T10:11:13.901Z,101087.19
2022-11-19T10:14:19.435Z,101086.97
2022-11-19T10:17:29.866Z,101082.56
2022-11-19T10:20:18.559Z,101084.56
2022-11-19T10:22:57.870Z,101091.34
2022-11-19T10:25:34.174Z,101081.88
2022-11-19T10:28:12.941Z,101087.47
2022-11-19T10:30:47.947Z,101086.00
2022-11-19T10:33:31.000Z,101092.34
2022-11-19T10:36:31.970Z,101084.34
2022-11-19T10:39:11.991Z,101079.41
2022-11-19T10:41:54.723Z,101091.00
2022-11-19T10:44:40.916Z,101085.31
2022-11-19T10:47:20.440Z,101075.84
2022-11-19T10:49:53.798Z,101077.44
2022-11-19T10:52:31.734Z,101077.34
2022-11-19T10:55:14.860Z,101078.22
2022-11-19T10:57:45.045Z,101068.22
2022-11-19T11:00:13.191Z,101078.34
2022-11-19T11:02:57.868Z,101073.19
2022-11-19T11:05:25.579Z,101067.50
2022-11-19T11:07:58.978Z,101069.59
2022-11-19T11:10:45.511Z,101060.66
2022-11-19T11:13:34.181Z,101063.88
2022-11-19T11:16:11.777Z,101057.91
2022-11-19T11:18:41.472Z,101065.34
2022-11-19T11:21:40.085Z,101062.66
2022-11-19T11:24:07.829Z,101063.13
2022-11-19T11:26:37.336Z,101055.47
2022-11-19T11:29:26.572Z,101060.88
2022-11-19T11:31:54.682Z,101054.69
2022-11-19T11:34:43.976Z,101051.84
2022-11-19T11:37:12.227Z,101054.81
2022-11-19T11:39:44.377Z,101050.72
2022-11-19T11:42:18.541Z,101045.56
2022-11-19T11:44:59.517Z,101043.78
2022-11-19T11:47:31.142Z,101041.22
2022-11-19T11:50:14.049Z,101040.22
2022-11-19T11:52:48.535Z,101037.66
2022-11-19T11:55:25.270Z,101039.63
2022-11-19T11:58:00.239Z,101041.03
2022-11-19T12:00:37.100Z,101037.34
2022-11-19T12:03:08.640Z,101031.41
2022-11-19T12:06:09.221Z,101024.66
2022-11-19T12:08:48.852Z,101024.94
2022-11-19T12:11:55.608Z,101020.03
2022-11-19T12:14:44.279Z,101010.09
2022-11-19T12:17:14.714Z,101002.94
2022-11-19T12:19:45.377Z,101001.91
2022-11-19T12:22:34.226Z,100995.28
2022-11-19T12:25:26.052Z,100991.88
2022-11-19T12:28:12.257Z,100988.22
2022-11-19T12:31:05.417Z,100981.72
2022-11-19T12:33:51.282Z,100977.03
2022-11-19T12:36:40.584Z,100965.97
2022-11-19T12:39:33.676Z,100961.28
2022-11-19T12:42:04.103Z,100961.69
2022-11-19T12:44:50.081Z,100957.69
2022-11-19T12:47:44.592Z,100947.34
2022-11-19T12:50:52.447Z,100952.44
2022-11-19T12:53:19.933Z,100943.03
2022-11-19T12:56:00.242Z,100947.06
2022-11-19T12:58:55.366Z,100935.75
2022-11-19T13:01:28.526Z,100929.88
2022-11-19T13:04:14.141Z,100922.63
2022-11-19T13:06:59.624Z,100918.91
2022-11-19T13:09:43.955Z,100914.38
2022-11-19T13:12:15.985Z,100919.59
2022-11-19T13:14:55.923Z,100920.41
2022-11-19T13:17:44.650Z,100918.72
2022-11-19T13:20:23.025Z,100911.56
2022-11-19T13:22:54.176Z,100921.22
2022-11-19T13:25:40.414Z,100914.88
2022-11-19T13:28:22.121Z,100907.97
2022-11-19T13:30:53.629Z,100916.53
2022-11-19T13:33:38.899Z,100913.75
2022-11-19T13:36:18.204Z,100910.81
2022-11-19T13:38:50.223Z,100910.19
2022-11-19T13:41:24.480Z,100909.72
2022-11-19T13:44:14.928Z,100901.66
2022-11-19T13:46:50.690Z,100895.75
2022-11-19T13:49:21.310Z,100902.88
2022-11-19T13:51:53.982Z,100901.09
2022-11-19T13:54:35.504Z,100896.53
2022-11-19T13:57:05.555Z,100901.53
2022-11-19T13:59:33.088Z,100898.53
2022-11-19T14:02:05.598Z,100899.16
2022-11-19T14:05:01.026Z,100895.88
2022-11-19T14:07:46.042Z,100885.09
2022-11-19T14:10:57.046Z,100886.75
2022-11-19T14:13:45.922Z,100876.97
2022-11-19T14:16:41.018Z,100881.28
2022-11-19T14:19:14.458Z,100875.63
2022-11-19T14:22:09.778Z,100869.81
2022-11-19T14:24:55.527Z,100876.09
2022-11-19T14:27:27.951Z,100871.63
2022-11-19T14:30:07.664Z,100859.19
2022-11-19T14:32:48.756Z,100858.03
2022-11-19T14:35:33.930Z,100857.78
2022-11-19T14:38:04.590Z,100853.59
2022-11-19T14:40:34.271Z,100847.78
2022-11-19T14:43:20.157Z,100851.09
2022-11-19T14:46:03.076Z,100844.44
2022-11-19T14:48:33.828Z,100845.66
2022-11-19T14:51:07.557Z,100831.97
2022-11-19T14:53:38.427Z,100831.63
2022-11-19T14:56:14.745Z,100830.31
2022-11-19T14:58:53.609Z,100830.97
2022-11-19T15:01:23.538Z,100824.28
2022-11-19T15:03:59.680Z,100820.28
2022-11-19T15:06:28.543Z,100816.28
2022-11-19T15:09:02.087Z,100815.91
2022-11-19T15:11:55.662Z,100815.31
2022-11-19T15:14:29.062Z,100810.50
2022-11-19T15:17:00.772Z,100815.47
2022-11-19T15:19:39.280Z,100809.53
2022-11-19T15:22:12.784Z,100801.78
2022-11-19T15:24:43.189Z,100802.88
2022-11-19T15:27:25.784Z,100798.75
2022-11-19T15:30:07.365Z,100793.06
2022-11-19T15:32:34.887Z,100798.06
2022-11-19T15:35:35.649Z,100792.97
2022-11-19T15:38:24.918Z,100801.19
2022-11-19T15:40:56.272Z,100802.03
2022-11-19T15:43:45.761Z,100794.19
2022-11-19T15:46:18.927Z,100793.09
2022-11-19T15:49:01.909Z,100798.44
2022-11-19T15:51:34.529Z,100792.38
2022-11-19T15:54:07.039Z,100788.97
2022-11-19T15:56:47.638Z,100799.03
2022-11-19T15:59:17.805Z,100798.19
2022-11-19T16:01:56.218Z,100790.19
2022-11-19T16:04:28.575Z,100781.94
2022-11-19T16:06:56.365Z,100774.44
2022-11-19T16:09:25.424Z,100776.00
2022-11-19T16:12:11.981Z,100769.81
2022-11-19T16:14:57.972Z,100773.59
2022-11-19T16:17:36.862Z,100772.03
2022-11-19T16:20:10.726Z,100760.03
2022-11-19T16:22:49.936Z,100761.13
2022-11-19T16:25:26.237Z,100755.91
2022-11-19T16:27:58.859Z,100754.19
2022-11-19T16:30:29.005Z,100754.44
2022-11-19T16:32:59.141Z,100749.00
2022-11-19T16:35:31.996Z,100747.31
2022-11-19T16:38:01.657Z,100749.25
2022-11-19T16:40:49.589Z,100739.44
2022-11-19T16:43:18.449Z,100750.09
2022-11-19T16:45:47.055Z,100741.50
2022-11-19T16:48:49.903Z,100744.66
2022-11-19T16:51:34.856Z,100737.13
2022-11-19T16:54:04.803Z,100735.56
2022-11-19T16:56:45.966Z,100735.84
2022-11-19T16:59:24.204Z,100727.09
2022-11-19T17:01:55.331Z,100713.78
2022-11-19T17:04:30.730Z,100718.38
2022-11-19T17:06:59.298Z,100719.22
2022-11-19T17:09:41.743Z,100717.53
2022-11-19T17:12:33.038Z,100711.59
2022-11-19T17:15:22.087Z,100722.25
2022-11-19T17:17:51.827Z,100706.41
2022-11-19T17:20:29.468Z,100703.00
2022-11-19T17:22:57.346Z,100702.16
2022-11-19T17:25:25.190Z,100704.84
2022-11-19T17:27:56.087Z,100706.53
2022-11-19T17:30:26.760Z,100704.84
2022-11-19T17:33:05.844Z,100694.03
2022-11-19T17:35:37.364Z,100695.88
2022-11-19T17:38:21.180Z,100688.00
2022-11-19T17:41:01.316Z,100685.44
2022-11-19T17:43:53.445Z,100684.63
2022-11-19T17:46:21.982Z,100690.78
2022-11-19T17:48:51.108Z,100678.44
2022-11-19T17:51:24.224Z,100681.94
2022-11-19T17:53:52.821Z,100672.28
2022-11-19T17:56:27.900Z,100668.88
2022-11-19T17:58:55.997Z,100669.00
2022-11-19T18:01:23.743Z,100666.34
2022-11-19T18:03:51.537Z,100662.81
2022-11-19T18:06:19.208Z,100658.47
2022-11-19T18:08:47.193Z,100657.63
2022-11-19T18:11:21.502Z,100650.47
2022-11-19T18:13:51.856Z,100649.63
2022-11-19T18:16:22.193Z,100648.91
2022-11-19T18:18:50.247Z,100636.81
2022-11-19T18:21:23.082Z,100637.66
2022-11-19T18:23:51.760Z,100637.66
2022-11-19T18:26:22.550Z,100634.03
2022-11-19T18:28:50.579Z,100630.25
2022-11-19T18:31:23.599Z,100619.50
2022-11-19T18:33:51.272Z,100628.19
2022-11-19T18:36:19.172Z,100622.88
2022-11-19T18:38:47.243Z,100607.88
2022-11-19T18:41:16.255Z,100609.69
2022-11-19T18:44:02.635Z,100606.91
2022-11-19T18:46:30.203Z,100595.16
2022-11-19T18:48:57.922Z,100594.31
2022-11-19T18:51:28.219Z,100588.16
2022-11-19T18:53:56.046Z,100597.00
2022-11-19T18:56:23.578Z,100585.25
2022-11-19T18:58:51.181Z,100576.41
2022-11-19T19:01:18.850Z,100577.38
2022-11-19T19:03:46.583Z,100578.47
2022-11-19T19:06:15.214Z,100576.66
2022-11-19T19:08:42.773Z,100571.34
2022-11-19T19:11:29.846Z,100565.03
2022-11-19T19:13:57.438Z,100565.78
2022-11-19T19:16:25.221Z,100568.28
2022-11-19T19:18:53.113Z,100568.19
2022-11-19T19:21:22.249Z,100554.72
2022-11-19T19:23:50.238Z,100555.56
2022-11-19T19:26:19.121Z,100548.44
2022-11-19T19:28:54.651Z,100497.97
2022-11-19T19:31:24.204Z,100508.63
2022-11-19T19:33:51.914Z,100508.63
2022-11-19T19:36:20.571Z,100516.38
2022-11-19T19:38:48.223Z,100505.47
2022-11-19T19:41:26.932Z,100505.31
2022-11-19T19:43:57.569Z,100493.72
2022-11-19T19:46:25.487Z,100482.06
2022-11-19T19:48:54.775Z,100487.25
2022-11-19T19:51:25.542Z,100486.16
2022-11-19T19:53:54.013Z,100495.97
2022-11-19T19:56:27.609Z,100484.50
2022-11-19T19:58:56.778Z,100483.66
2022-11-19T20:01:30.367Z,100485.34
2022-11-19T20:04:03.597Z,100484.25
2022-11-19T20:06:32.481Z,100487.59
2022-11-19T20:09:03.188Z,100486.41
2022-11-19T20:11:34.559Z,100479.34
2022-11-19T20:14:02.171Z,100470.28
2022-11-19T20:16:31.751Z,100474.75
2022-11-19T20:19:01.022Z,100467.16
2022-11-19T20:21:34.054Z,100458.44
2022-11-19T20:24:08.736Z,100452.38
2022-11-19T20:26:40.835Z,100454.22
2022-11-19T20:29:11.660Z,100458.84
2022-11-19T20:31:39.893Z,100457.28
2022-11-19T20:34:07.739Z,100446.13
2022-11-19T20:36:35.807Z,100443.97
2022-11-19T20:39:03.771Z,100434.56
2022-11-19T20:41:49.988Z,100441.97
2022-11-19T20:44:21.847Z,100429.06
2022-11-19T20:46:52.580Z,100426.50
2022-11-19T20:49:22.857Z,100423.00
2022-11-19T20:51:51.288Z,100427.47
2022-11-19T20:54:19.849Z,100425.78
2022-11-19T20:56:49.195Z,100418.91
2022-11-19T20:59:17.194Z,100422.53
2022-11-19T21:01:45.161Z,100422.78
2022-11-19T21:04:12.758Z,100424.72
2022-11-19T21:06:40.793Z,100422.31
2022-11-19T21:09:08.868Z,100419.91
2022-11-19T21:11:36.507Z,100413.25
2022-11-19T21:14:04.853Z,100404.69
2022-11-19T21:16:33.072Z,100412.19
2022-11-19T21:19:01.148Z,100415.84
2022-11-19T21:21:28.655Z,100413.41
2022-11-19T21:23:56.235Z,100415.63
2022-11-19T21:26:26.324Z,100410.81
2022-11-19T21:28:57.134Z,100410.22
2022-11-19T21:31:43.940Z,100403.19
2022-11-19T21:34:17.967Z,100398.97
2022-11-19T21:36:46.583Z,100404.41
2022-11-19T21:39:16.654Z,100399.22
2022-11-19T21:41:45.057Z,100394.47
2022-11-19T21:44:16.815Z,100392.88
2022-11-19T21:46:48.803Z,100399.44
2022-11-19T21:49:16.475Z,100385.53
2022-11-19T21:51:44.298Z,100387.47
2022-11-19T21:54:11.881Z,100380.59
2022-11-19T21:56:39.474Z,100385.19
2022-11-19T21:59:07.660Z,100375.78
2022-11-19T22:01:35.391Z,100370.56
2022-11-19T22:04:03.015Z,100372.63
2022-11-19T22:06:32.569Z,100364.19
2022-11-19T22:09:00.336Z,100363.69
2022-11-19T22:11:30.932Z,100363.09
2022-11-19T22:14:04.960Z,100354.16
2022-11-19T22:16:36.066Z,100350.78
2022-11-19T22:19:05.729Z,100344.88
2022-11-19T22:21:34.270Z,100339.22
2022-11-19T22:24:01.972Z,100343.78
2022-11-19T22:26:29.694Z,100330.50
2022-11-19T22:28:57.306Z,100329.91
2022-11-19T22:31:25.474Z,100320.59
2022-11-19T22:33:54.019Z,100319.16
2022-11-19T22:36:22.728Z,100313.94
2022-11-19T22:38:51.740Z,100307.94
2022-11-19T22:41:21.056Z,100306.09
2022-11-19T22:43:49.538Z,100296.56
2022-11-19T22:46:17.952Z,100296.56
2022-11-19T22:48:45.573Z,100290.53
2022-11-19T22:51:15.706Z,100277.38
2022-11-19T22:53:43.853Z,100274.84
2022-11-19T22:56:13.869Z,100259.88
2022-11-19T22:58:42.006Z,100267.13
2022-11-19T23:01:36.218Z,100254.94
2022-11-19T23:04:07.738Z,100242.50
2022-11-19T23:06:37.302Z,100241.66
2022-11-19T23:09:06.082Z,100235.50
2022-11-19T23:11:52.351Z,100232.94
2022-11-19T23:14:20.799Z,100231.50
2022-11-19T23:16:48.431Z,100234.16
2022-11-19T23:19:19.780Z,100235.38
2022-11-19T23:21:47.837Z,100221.25
2022-11-19T23:24:15.382Z,100218.72
2022-11-19T23:26:43.167Z,100215.34
2022-11-19T23:29:10.767Z,100207.38
2022-11-19T23:31:39.434Z,100200.28
2022-11-19T23:34:07.568Z,100191.56
2022-11-19T23:36:38.126Z,100184.34
2022-11-19T23:39:08.250Z,100191.34
2022-11-19T23:41:35.984Z,100177.31
2022-11-19T23:44:04.292Z,100177.31
2022-11-19T23:46:34.299Z,100179.03
2022-11-19T23:49:03.035Z,100181.69
2022-11-19T23:51:36.121Z,100178.91
2022-11-19T23:54:04.514Z,100172.84
2022-11-19T23:56:33.292Z,100167.69
2022-11-19T23:59:02.494Z,100171.91
